Time;durP1;ratioP1;P1;durP2;ratioP2;P2;SDS_P1;SDS_P2;PMS_P1;PMS_P2;Temp;Humidity;BMP_temperature;BMP_pressure;BME280_temperature;BME280_humidity;BME280_pressure;Samples;Min_cycle;Max_cycle;Signal;HPM_P1;HPM_P2
2022/11/06 00:00:41;;;;;;;12.57;6.82;;;;;;;;;;5018767;28;20483;-82
2022/11/06 00:03:06;;;;;;;13.82;7.32;;;;;;;;;;5008708;28;20037;-69
2022/11/06 00:08:25;;;;;;;11.38;6.63;;;;;;;;;;5011661;28;20262;-70
2022/11/06 00:10:51;;;;;;;12.88;7.97;;;;;;;;;;5014498;28;20079;-70
2022/11/06 00:13:16;;;;;;;10.65;6.53;;;;;;;;;;5013536;28;20022;-70
2022/11/06 00:15:41;;;;;;;15.43;7.43;;;;;;;;;;5017688;28;20021;-70
2022/11/06 00:18:06;;;;;;;12.07;7.07;;;;;;;;;;5012975;28;20100;-69
2022/11/06 00:20:32;;;;;;;11.82;7.32;;;;;;;;;;5017631;28;20030;-69
2022/11/06 00:22:57;;;;;;;11.47;6.87;;;;;;;;;;5011627;28;20029;-69
2022/11/06 00:25:22;;;;;;;11.40;6.78;;;;;;;;;;5017800;28;20295;-79
2022/11/06 00:27:48;;;;;;;13.00;7.47;;;;;;;;;;5017334;28;20032;-79
2022/11/06 00:30:13;;;;;;;13.15;6.20;;;;;;;;;;5017788;28;20034;-80
2022/11/06 00:32:38;;;;;;;11.60;6.53;;;;;;;;;;5019301;28;20045;-79
2022/11/06 00:35:04;;;;;;;10.98;6.38;;;;;;;;;;5017872;28;20758;-79
2022/11/06 00:37:29;;;;;;;8.48;5.63;;;;;;;;;;5020912;28;20099;-79
2022/11/06 00:39:54;;;;;;;12.60;6.70;;;;;;;;;;5012272;28;20056;-73
2022/11/06 00:42:19;;;;;;;14.77;6.45;;;;;;;;;;5025539;28;20033;-72
2022/11/06 00:44:44;;;;;;;15.52;7.38;;;;;;;;;;5021538;28;20034;-71
2022/11/06 00:47:11;;;;;;;12.20;7.30;;;;;;;;;;5014417;28;20045;-72
2022/11/06 00:49:36;;;;;;;12.35;7.93;;;;;;;;;;5014768;28;20260;-72
2022/11/06 00:52:01;;;;;;;9.57;6.03;;;;;;;;;;5016749;28;20033;-72
2022/11/06 00:54:26;;;;;;;10.88;6.40;;;;;;;;;;5011038;28;20261;-72
2022/11/06 00:56:51;;;;;;;9.50;6.43;;;;;;;;;;5012922;28;20116;-75
2022/11/06 00:59:17;;;;;;;13.40;7.17;;;;;;;;;;5010472;28;20318;-66
2022/11/06 01:01:43;;;;;;;12.65;7.55;;;;;;;;;;5022856;28;20310;-72
2022/11/06 01:04:16;;;;;;;12.70;7.70;;;;;;;;;;5023406;28;20017;-72
2022/11/06 01:06:43;;;;;;;14.35;6.88;;;;;;;;;;5022341;28;20022;-71
2022/11/06 01:09:10;;;;;;;11.43;6.50;;;;;;;;;;5014223;28;20421;-71
2022/11/06 01:11:37;;;;;;;11.48;6.10;;;;;;;;;;5020019;28;20025;-71
2022/11/06 01:14:03;;;;;;;12.50;6.95;;;;;;;;;;5016913;28;20105;-70
2022/11/06 01:16:28;;;;;;;14.15;7.35;;;;;;;;;;5025239;28;20024;-70
2022/11/06 01:18:54;;;;;;;12.93;6.85;;;;;;;;;;5011746;28;20030;-65
2022/11/06 01:21:21;;;;;;;10.48;6.55;;;;;;;;;;5021268;28;20038;-67
2022/11/06 01:23:46;;;;;;;11.15;6.28;;;;;;;;;;5011155;28;20032;-70
2022/11/06 01:26:12;;;;;;;11.85;6.57;;;;;;;;;;5011967;28;20022;-68
2022/11/06 01:28:38;;;;;;;10.98;7.03;;;;;;;;;;5026304;28;20034;-70
2022/11/06 01:31:04;;;;;;;13.45;7.00;;;;;;;;;;5017563;28;20112;-71
2022/11/06 01:33:30;;;;;;;11.90;6.93;;;;;;;;;;5013093;28;20018;-70
2022/11/06 01:35:55;;;;;;;11.68;6.20;;;;;;;;;;5018089;28;20032;-71
2022/11/06 01:38:20;;;;;;;12.00;7.20;;;;;;;;;;5009091;28;20366;-67
2022/11/06 01:40:46;;;;;;;10.00;6.10;;;;;;;;;;5018380;28;20807;-67
2022/11/06 01:43:17;;;;;;;11.73;6.90;;;;;;;;;;5017903;28;20018;-67
2022/11/06 01:45:44;;;;;;;16.50;7.05;;;;;;;;;;5019731;28;20373;-67
2022/11/06 01:48:09;;;;;;;11.98;7.60;;;;;;;;;;5020259;28;20044;-67
2022/11/06 01:50:34;;;;;;;13.07;6.50;;;;;;;;;;5020285;28;20026;-68
2022/11/06 01:53:01;;;;;;;9.25;5.80;;;;;;;;;;5018261;28;20029;-70
2022/11/06 01:55:38;;;;;;;9.90;6.10;;;;;;;;;;5012462;28;20026;-74
2022/11/06 01:58:04;;;;;;;13.00;6.95;;;;;;;;;;5012357;28;20373;-70
2022/11/06 02:00:31;;;;;;;13.18;7.45;;;;;;;;;;5020870;28;20087;-68
2022/11/06 02:02:57;;;;;;;10.60;6.38;;;;;;;;;;5021092;28;20037;-68
2022/11/06 02:05:22;;;;;;;11.30;6.55;;;;;;;;;;5019142;28;20074;-70
2022/11/06 02:07:47;;;;;;;11.77;6.55;;;;;;;;;;5009773;28;20099;-69
2022/11/06 02:10:13;;;;;;;15.48;7.50;;;;;;;;;;5017771;28;20021;-69
2022/11/06 02:12:38;;;;;;;14.27;7.30;;;;;;;;;;5013318;28;20025;-69
2022/11/06 02:15:21;;;;;;;13.27;7.05;;;;;;;;;;5016475;28;20544;-72
2022/11/06 02:18:04;;;;;;;16.38;6.75;;;;;;;;;;5010105;28;20022;-72
2022/11/06 02:20:29;;;;;;;15.10;7.65;;;;;;;;;;5010551;28;20017;-72
2022/11/06 02:22:58;;;;;;;14.68;6.93;;;;;;;;;;5023240;28;20342;-73
2022/11/06 02:25:44;;;;;;;12.45;6.68;;;;;;;;;;5022245;28;20014;-73
2022/11/06 02:28:24;;;;;;;13.68;7.15;;;;;;;;;;5011476;28;20033;-72
2022/11/06 02:30:49;;;;;;;;;;;;;;;;;;5008140;28;20068;-80
2022/11/06 02:33:17;;;;;;;11.45;6.63;;;;;;;;;;5027567;28;19909;-70
2022/11/06 02:35:46;;;;;;;10.82;6.60;;;;;;;;;;5020646;28;20108;-69
2022/11/06 02:38:44;;;;;;;10.15;6.38;;;;;;;;;;5025671;28;20037;-68
2022/11/06 02:41:11;;;;;;;12.15;6.85;;;;;;;;;;4952080;28;20053;-68
2022/11/06 02:43:38;;;;;;;14.43;7.75;;;;;;;;;;5005921;28;20021;-69
2022/11/06 02:46:17;;;;;;;9.48;5.82;;;;;;;;;;5022224;28;20022;-68
2022/11/06 02:48:47;;;;;;;14.00;7.40;;;;;;;;;;5023643;28;20071;-70
2022/11/06 02:51:14;;;;;;;10.82;6.50;;;;;;;;;;5014139;28;20385;-70
2022/11/06 02:53:41;;;;;;;11.85;6.78;;;;;;;;;;5026955;28;20655;-69
2022/11/06 02:56:09;;;;;;;11.55;6.40;;;;;;;;;;5028809;28;20056;-70
2022/11/06 02:58:45;;;;;;;15.23;7.13;;;;;;;;;;5010160;28;20045;-69
2022/11/06 03:01:13;;;;;;;10.50;6.18;;;;;;;;;;5009679;28;20485;-69
2022/11/06 03:03:40;;;;;;;11.10;5.72;;;;;;;;;;5011878;28;20022;-69
2022/11/06 03:06:10;;;;;;;15.23;8.48;;;;;;;;;;5026891;28;20044;-70
2022/11/06 03:08:39;;;;;;;10.02;6.47;;;;;;;;;;5026512;28;20036;-74
2022/11/06 03:11:10;;;;;;;11.73;7.32;;;;;;;;;;5030203;28;20065;-70
2022/11/06 03:13:43;;;;;;;11.57;6.03;;;;;;;;;;5017250;28;20121;-71
2022/11/06 03:16:22;;;;;;;10.65;5.78;;;;;;;;;;5000434;28;20607;-69
2022/11/06 03:18:53;;;;;;;13.02;6.38;;;;;;;;;;5014870;28;20061;-70
2022/11/06 03:21:23;;;;;;;17.73;6.32;;;;;;;;;;5009480;28;20034;-70
2022/11/06 03:23:52;;;;;;;10.57;6.07;;;;;;;;;;5025506;28;20095;-69
2022/11/06 03:26:23;;;;;;;10.63;6.68;;;;;;;;;;5014625;28;20135;-69
2022/11/06 03:28:51;;;;;;;11.82;6.35;;;;;;;;;;5015831;28;20045;-66
2022/11/06 03:31:20;;;;;;;11.23;7.00;;;;;;;;;;5009411;28;20477;-68
2022/11/06 03:33:49;;;;;;;10.98;6.45;;;;;;;;;;5022708;28;20021;-68
2022/11/06 03:36:35;;;;;;;12.98;6.45;;;;;;;;;;5013006;28;20508;-68
2022/11/06 03:39:02;;;;;;;11.93;6.57;;;;;;;;;;5008741;28;20030;-66
2022/11/06 03:41:35;;;;;;;10.95;5.80;;;;;;;;;;5012778;28;20030;-68
2022/11/06 03:44:02;;;;;;;12.35;6.97;;;;;;;;;;5016120;28;20033;-71
2022/11/06 03:46:28;;;;;;;10.82;5.47;;;;;;;;;;5012140;28;20133;-72
2022/11/06 03:48:59;;;;;;;11.23;6.13;;;;;;;;;;4998196;28;20100;-72
2022/11/06 03:51:32;;;;;;;12.63;6.47;;;;;;;;;;5014992;28;20022;-72
2022/11/06 03:54:01;;;;;;;11.13;6.15;;;;;;;;;;5000235;28;20025;-73
2022/11/06 03:56:34;;;;;;;11.30;6.68;;;;;;;;;;5012726;28;20029;-72
2022/11/06 03:59:01;;;;;;;9.82;6.00;;;;;;;;;;5013482;28;20373;-75
2022/11/06 04:01:28;;;;;;;11.70;6.55;;;;;;;;;;5023824;28;20035;-72
2022/11/06 04:03:56;;;;;;;9.90;6.25;;;;;;;;;;5015377;28;20462;-70
2022/11/06 04:06:27;;;;;;;10.88;7.13;;;;;;;;;;5011973;28;20028;-68
2022/11/06 04:14:25;;;;;;;10.80;6.18;;;;;;;;;;5020466;28;20017;-67
2022/11/06 04:16:52;;;;;;;11.30;6.35;;;;;;;;;;5018436;28;20041;-67
2022/11/06 04:19:19;;;;;;;10.07;6.40;;;;;;;;;;5010169;28;20177;-68
2022/11/06 04:21:44;;;;;;;11.80;6.00;;;;;;;;;;5010507;28;20042;-72
2022/11/06 04:27:15;;;;;;;11.45;6.18;;;;;;;;;;5046168;28;20282;-81
2022/11/06 04:29:40;;;;;;;9.45;5.97;;;;;;;;;;5045999;28;20077;-78
2022/11/06 04:32:11;;;;;;;12.43;5.90;;;;;;;;;;5042828;28;20021;-78
2022/11/06 04:34:43;;;;;;;9.50;5.50;;;;;;;;;;5039409;28;20281;-79
2022/11/06 04:37:19;;;;;;;15.07;6.60;;;;;;;;;;5023095;28;20037;-78
2022/11/06 04:39:59;;;;;;;12.20;6.57;;;;;;;;;;5062857;28;20101;-77
2022/11/06 04:42:43;;;;;;;11.00;5.72;;;;;;;;;;5044945;28;20039;-80
2022/11/06 04:45:15;;;;;;;11.93;6.47;;;;;;;;;;5029270;28;20025;-75
2022/11/06 04:47:41;;;;;;;10.55;6.28;;;;;;;;;;5063498;28;20028;-76
2022/11/06 04:50:08;;;;;;;9.98;5.68;;;;;;;;;;5037235;28;20081;-75
2022/11/06 04:52:34;;;;;;;10.63;5.72;;;;;;;;;;5053100;28;20025;-79
2022/11/06 04:54:59;;;;;;;8.77;5.35;;;;;;;;;;5059788;28;20480;-79
2022/11/06 04:57:25;;;;;;;9.30;5.93;;;;;;;;;;5054007;28;20025;-77
2022/11/06 04:59:50;;;;;;;12.60;6.20;;;;;;;;;;5026029;28;20337;-70
2022/11/06 05:02:15;;;;;;;10.30;6.30;;;;;;;;;;5050182;28;20377;-79
2022/11/06 05:04:40;;;;;;;12.33;6.13;;;;;;;;;;5056716;28;20047;-79
2022/11/06 05:07:06;;;;;;;13.23;6.20;;;;;;;;;;5049375;28;20276;-80
2022/11/06 05:09:31;;;;;;;8.20;5.17;;;;;;;;;;5065759;28;20255;-80
2022/11/06 05:11:56;;;;;;;11.82;7.38;;;;;;;;;;5059639;28;20311;-80
2022/11/06 05:14:21;;;;;;;9.38;6.22;;;;;;;;;;5062144;28;20032;-77
2022/11/06 05:16:47;;;;;;;9.60;5.97;;;;;;;;;;5064453;28;20020;-75
2022/11/06 05:19:12;;;;;;;8.07;6.18;;;;;;;;;;5055258;28;20806;-78
2022/11/06 05:24:21;;;;;;;10.27;5.53;;;;;;;;;;5066600;28;20326;-75
2022/11/06 05:26:46;;;;;;;8.30;5.00;;;;;;;;;;5065255;28;20106;-75
2022/11/06 05:29:11;;;;;;;8.77;4.97;;;;;;;;;;5052139;28;20295;-75
2022/11/06 05:31:37;;;;;;;8.27;4.60;;;;;;;;;;5019413;28;20020;-76
2022/11/06 05:34:02;;;;;;;8.77;5.20;;;;;;;;;;5030453;28;20048;-69
2022/11/06 05:36:27;;;;;;;8.13;4.50;;;;;;;;;;5030936;28;20275;-71
2022/11/06 05:38:52;;;;;;;10.07;4.83;;;;;;;;;;5031307;28;20479;-70
2022/11/06 05:41:18;;;;;;;8.53;4.97;;;;;;;;;;5051714;28;20870;-70
2022/11/06 05:43:43;;;;;;;9.40;5.47;;;;;;;;;;5047825;28;21016;-69
2022/11/06 05:46:08;;;;;;;7.67;5.43;;;;;;;;;;5056305;28;20036;-70
2022/11/06 05:48:33;;;;;;;7.17;4.43;;;;;;;;;;5052342;28;20362;-67
2022/11/06 05:51:05;;;;;;;10.13;4.90;;;;;;;;;;5049541;28;20338;-68
2022/11/06 05:53:31;;;;;;;7.80;4.78;;;;;;;;;;5047616;28;20283;-74
2022/11/06 05:55:57;;;;;;;9.40;4.57;;;;;;;;;;5027366;28;20104;-69
2022/11/06 05:58:22;;;;;;;9.70;4.70;;;;;;;;;;5048281;28;20104;-69
2022/11/06 06:00:47;;;;;;;9.00;5.13;;;;;;;;;;5048846;28;20311;-69
2022/11/06 06:03:13;;;;;;;8.02;5.13;;;;;;;;;;5049723;28;20279;-68
2022/11/06 06:05:38;;;;;;;7.50;4.70;;;;;;;;;;5043774;28;20024;-69
2022/11/06 06:08:03;;;;;;;8.38;4.68;;;;;;;;;;5046559;28;20458;-68
2022/11/06 06:10:29;;;;;;;9.20;5.18;;;;;;;;;;5047617;28;20017;-77
2022/11/06 06:12:54;;;;;;;7.75;4.78;;;;;;;;;;5048774;28;20527;-71
2022/11/06 06:15:19;;;;;;;6.93;4.80;;;;;;;;;;5031305;28;20358;-73
2022/11/06 06:17:45;;;;;;;9.18;4.88;;;;;;;;;;5031583;28;20267;-74
2022/11/06 06:20:10;;;;;;;8.63;4.72;;;;;;;;;;5021355;28;20744;-73
2022/11/06 06:22:36;;;;;;;8.30;5.25;;;;;;;;;;5029585;28;20033;-75
2022/11/06 06:25:01;;;;;;;7.90;4.97;;;;;;;;;;5027994;28;20187;-74
2022/11/06 06:27:26;;;;;;;7.53;4.57;;;;;;;;;;5047832;28;20260;-74
2022/11/06 06:29:52;;;;;;;8.77;5.05;;;;;;;;;;5030164;28;20278;-70
2022/11/06 06:32:17;;;;;;;7.47;4.55;;;;;;;;;;5049670;28;20028;-72
2022/11/06 06:34:42;;;;;;;9.10;5.37;;;;;;;;;;5041805;28;20017;-72
2022/11/06 06:37:07;;;;;;;7.85;4.88;;;;;;;;;;5048857;28;20287;-71
2022/11/06 06:39:33;;;;;;;9.55;5.35;;;;;;;;;;5054678;28;20001;-72
2022/11/06 06:41:58;;;;;;;8.67;5.03;;;;;;;;;;5051449;28;20037;-70
2022/11/06 06:44:23;;;;;;;8.55;4.68;;;;;;;;;;5048902;28;20268;-71
2022/11/06 06:46:48;;;;;;;9.40;4.90;;;;;;;;;;5034454;28;20052;-70
2022/11/06 06:49:14;;;;;;;9.90;5.50;;;;;;;;;;5057508;28;20013;-78
2022/11/06 06:51:39;;;;;;;7.83;4.57;;;;;;;;;;5057580;28;20260;-75
2022/11/06 06:54:04;;;;;;;9.68;5.30;;;;;;;;;;5041167;28;20266;-75
2022/11/06 06:56:29;;;;;;;9.20;5.40;;;;;;;;;;5058016;28;20033;-75
2022/11/06 06:58:54;;;;;;;9.90;5.97;;;;;;;;;;5054925;28;20482;-75
2022/11/06 07:01:20;;;;;;;10.52;5.68;;;;;;;;;;5028354;28;20696;-74
2022/11/06 07:03:45;;;;;;;8.00;5.03;;;;;;;;;;5042261;28;20051;-76
2022/11/06 07:06:10;;;;;;;8.73;5.80;;;;;;;;;;5034817;28;20325;-69
2022/11/06 07:08:36;;;;;;;9.95;5.32;;;;;;;;;;5042783;28;20275;-75
2022/11/06 07:11:02;;;;;;;10.68;5.35;;;;;;;;;;5064605;28;20092;-71
2022/11/06 07:13:28;;;;;;;8.77;5.40;;;;;;;;;;5058327;28;20276;-71
2022/11/06 07:15:53;;;;;;;8.35;5.13;;;;;;;;;;5065398;28;20057;-73
2022/11/06 07:18:18;;;;;;;9.40;5.13;;;;;;;;;;5034790;28;20039;-72
2022/11/06 07:20:43;;;;;;;11.95;6.00;;;;;;;;;;5050022;28;20279;-71
2022/11/06 07:23:09;;;;;;;7.65;4.30;;;;;;;;;;5062858;28;20028;-70
2022/11/06 07:25:34;;;;;;;10.35;5.07;;;;;;;;;;5049376;28;20519;-74
2022/11/06 07:28:03;;;;;;;12.10;5.15;;;;;;;;;;5044363;28;20159;-76
2022/11/06 07:30:30;;;;;;;10.43;6.35;;;;;;;;;;5051347;28;20135;-77
2022/11/06 07:32:55;;;;;;;11.90;5.88;;;;;;;;;;5051757;28;20108;-80
2022/11/06 07:35:21;;;;;;;9.85;5.55;;;;;;;;;;5050179;28;20435;-77
2022/11/06 07:37:46;;;;;;;9.85;5.45;;;;;;;;;;5051633;28;20032;-78
2022/11/06 07:40:12;;;;;;;11.27;5.50;;;;;;;;;;5049746;28;20350;-77
2022/11/06 07:42:37;;;;;;;8.68;6.10;;;;;;;;;;5047255;28;20075;-72
2022/11/06 07:45:03;;;;;;;9.07;5.30;;;;;;;;;;5049191;28;20029;-75
2022/11/06 07:47:29;;;;;;;10.77;6.22;;;;;;;;;;5032586;28;20040;-75
2022/11/06 07:49:54;;;;;;;9.95;5.28;;;;;;;;;;5047206;28;20103;-75
2022/11/06 07:52:20;;;;;;;9.68;5.97;;;;;;;;;;5026053;28;20083;-74
2022/11/06 07:54:45;;;;;;;9.73;5.53;;;;;;;;;;5033254;28;20504;-76
2022/11/06 07:57:10;;;;;;;9.57;5.07;;;;;;;;;;5036655;28;20834;-75
2022/11/06 07:59:35;;;;;;;8.87;5.70;;;;;;;;;;5031817;28;20090;-77
2022/11/06 08:02:01;;;;;;;9.60;6.22;;;;;;;;;;5053237;28;20337;-71
2022/11/06 08:04:26;;;;;;;8.60;5.03;;;;;;;;;;5035626;28;20028;-70
2022/11/06 08:06:51;;;;;;;9.80;5.73;;;;;;;;;;5056472;28;20366;-70
2022/11/06 08:09:16;;;;;;;10.13;5.27;;;;;;;;;;5054277;28;20299;-69
2022/11/06 08:11:42;;;;;;;9.68;5.78;;;;;;;;;;5056291;28;20306;-72
2022/11/06 08:14:07;;;;;;;8.40;4.72;;;;;;;;;;5054521;28;20025;-73
2022/11/06 08:16:32;;;;;;;8.77;5.22;;;;;;;;;;5029078;28;20023;-71
2022/11/06 08:18:58;;;;;;;11.30;5.35;;;;;;;;;;5052116;28;20059;-70
2022/11/06 08:21:23;;;;;;;9.63;6.20;;;;;;;;;;5033219;28;20033;-73
2022/11/06 08:23:48;;;;;;;7.50;4.20;;;;;;;;;;5043002;28;20108;-79
2022/11/06 08:26:13;;;;;;;8.25;4.90;;;;;;;;;;5045944;28;20038;-77
2022/11/06 08:28:39;;;;;;;9.05;5.68;;;;;;;;;;5032981;28;20097;-78
2022/11/06 08:31:04;;;;;;;9.02;4.97;;;;;;;;;;5049212;28;20025;-78
2022/11/06 08:33:30;;;;;;;9.73;6.07;;;;;;;;;;5045627;28;20276;-80
2022/11/06 08:35:55;;;;;;;9.23;5.10;;;;;;;;;;5031285;28;20023;-82
2022/11/06 08:38:20;;;;;;;8.97;5.37;;;;;;;;;;5020535;28;20051;-75
2022/11/06 08:40:46;;;;;;;10.48;6.20;;;;;;;;;;5033896;28;20274;-73
2022/11/06 08:43:11;;;;;;;10.00;6.50;;;;;;;;;;5031061;28;20025;-70
2022/11/06 08:45:37;;;;;;;10.48;6.80;;;;;;;;;;5032395;28;20333;-70
2022/11/06 08:48:03;;;;;;;9.95;5.68;;;;;;;;;;5055936;28;20021;-69
2022/11/06 08:50:28;;;;;;;11.57;6.38;;;;;;;;;;5049226;28;20017;-71
2022/11/06 08:52:57;;;;;;;10.88;6.07;;;;;;;;;;5050666;28;20032;-69
2022/11/06 08:55:22;;;;;;;11.95;7.28;;;;;;;;;;5020952;28;20013;-71
2022/11/06 08:57:47;;;;;;;11.77;6.55;;;;;;;;;;5049519;28;20095;-86
2022/11/06 09:00:14;;;;;;;11.50;6.72;;;;;;;;;;5029240;28;20009;-77
2022/11/06 09:02:39;;;;;;;10.52;6.38;;;;;;;;;;5031979;28;20032;-76
2022/11/06 09:05:04;;;;;;;18.40;7.73;;;;;;;;;;5028474;28;20365;-76
2022/11/06 09:07:30;;;;;;;10.32;6.13;;;;;;;;;;5027388;28;20687;-77
2022/11/06 09:09:55;;;;;;;12.90;7.67;;;;;;;;;;5050742;28;20020;-76
2022/11/06 09:12:20;;;;;;;10.90;6.77;;;;;;;;;;5031231;28;20685;-75
2022/11/06 09:14:45;;;;;;;10.83;6.30;;;;;;;;;;5032393;28;20266;-73
2022/11/06 09:17:22;;;;;;;10.57;6.03;;;;;;;;;;5049545;28;20286;-71
2022/11/06 09:19:47;;;;;;;11.40;6.55;;;;;;;;;;5031268;28;20671;-76
2022/11/06 09:22:12;;;;;;;12.43;7.05;;;;;;;;;;5049792;28;20060;-75
2022/11/06 09:24:37;;;;;;;10.00;5.57;;;;;;;;;;5030567;28;20415;-77
2022/11/06 09:27:02;;;;;;;10.60;5.70;;;;;;;;;;5031222;28;20293;-77
2022/11/06 09:29:28;;;;;;;10.52;6.60;;;;;;;;;;5049069;28;20286;-77
2022/11/06 09:31:53;;;;;;;9.27;5.97;;;;;;;;;;5035803;28;20373;-77
2022/11/06 09:34:18;;;;;;;12.57;7.40;;;;;;;;;;5049117;28;20622;-72
2022/11/06 09:36:44;;;;;;;11.70;7.00;;;;;;;;;;5068578;28;20070;-81
2022/11/06 09:39:09;;;;;;;12.73;6.65;;;;;;;;;;5034722;28;20029;-80
2022/11/06 09:41:47;;;;;;;13.50;6.77;;;;;;;;;;5050001;28;20434;-79
2022/11/06 09:44:33;;;;;;;11.45;6.93;;;;;;;;;;5053439;28;20275;-80
2022/11/06 09:46:59;;;;;;;12.43;7.13;;;;;;;;;;5010391;28;20032;-80
2022/11/06 09:49:34;;;;;;;11.38;6.82;;;;;;;;;;5032962;28;20025;-80
2022/11/06 09:52:02;;;;;;;14.48;7.28;;;;;;;;;;5033138;28;20025;-78
2022/11/06 09:54:31;;;;;;;10.98;6.57;;;;;;;;;;5045567;28;20375;-73
2022/11/06 09:57:00;;;;;;;11.85;7.25;;;;;;;;;;5063065;28;20022;-74
2022/11/06 09:59:25;;;;;;;11.13;6.37;;;;;;;;;;5042902;28;20029;-74
2022/11/06 10:01:55;;;;;;;9.73;6.25;;;;;;;;;;5043197;28;20357;-73
2022/11/06 10:04:29;;;;;;;9.63;6.53;;;;;;;;;;5036041;28;20569;-73
2022/11/06 10:06:55;;;;;;;9.73;6.22;;;;;;;;;;5066834;28;20017;-74
2022/11/06 10:09:20;;;;;;;9.80;6.13;;;;;;;;;;5039972;28;20101;-74
2022/11/06 10:12:05;;;;;;;10.82;5.63;;;;;;;;;;5040184;28;20028;-87
2022/11/06 10:14:39;;;;;;;9.10;5.80;;;;;;;;;;5053047;28;20377;-73
2022/11/06 10:17:15;;;;;;;9.05;5.35;;;;;;;;;;5039374;28;20130;-74
2022/11/06 10:20:03;;;;;;;8.20;4.53;;;;;;;;;;5051669;28;20107;-73
2022/11/06 10:22:28;;;;;;;6.28;4.57;;;;;;;;;;5021827;28;20033;-73
2022/11/06 10:25:11;;;;;;;9.23;5.37;;;;;;;;;;5030316;28;20048;-72
2022/11/06 10:27:40;;;;;;;9.02;4.50;;;;;;;;;;5049782;28;20017;-74
2022/11/06 10:30:12;;;;;;;9.13;4.25;;;;;;;;;;5029924;28;20025;-74
2022/11/06 10:32:43;;;;;;;7.45;4.35;;;;;;;;;;5030176;28;20018;-81
2022/11/06 10:35:16;;;;;;;6.55;4.38;;;;;;;;;;5030583;28;20116;-81
2022/11/06 10:38:03;;;;;;;9.02;3.35;;;;;;;;;;5050126;28;20044;-80
2022/11/06 10:40:30;;;;;;;7.55;3.92;;;;;;;;;;5029340;28;20025;-80
2022/11/06 10:43:07;;;;;;;6.60;4.07;;;;;;;;;;5038656;28;20036;-80
2022/11/06 10:45:35;;;;;;;6.65;4.10;;;;;;;;;;5048783;28;20013;-81
2022/11/06 10:48:08;;;;;;;5.78;3.50;;;;;;;;;;5035216;28;20031;-79
2022/11/06 10:50:40;;;;;;;6.50;3.80;;;;;;;;;;5033473;28;20016;-80
2022/11/06 10:53:24;;;;;;;5.38;3.08;;;;;;;;;;5055811;28;20039;-81
2022/11/06 10:56:01;;;;;;;5.85;3.58;;;;;;;;;;5051792;28;20025;-82
2022/11/06 10:58:31;;;;;;;10.70;3.88;;;;;;;;;;5027987;28;20066;-82
2022/11/06 11:01:04;;;;;;;5.45;3.35;;;;;;;;;;5045571;28;20460;-82
2022/11/06 11:03:50;;;;;;;6.45;3.10;;;;;;;;;;5043887;28;20056;-81
2022/11/06 11:06:15;;;;;;;5.22;3.28;;;;;;;;;;5046420;28;20021;-71
2022/11/06 11:08:50;;;;;;;5.47;3.53;;;;;;;;;;5035836;28;20495;-80
2022/11/06 11:11:21;;;;;;;6.22;4.20;;;;;;;;;;5055232;28;20021;-82
2022/11/06 11:14:07;;;;;;;5.47;3.25;;;;;;;;;;5037875;28;20083;-81
2022/11/06 11:16:38;;;;;;;7.65;3.35;;;;;;;;;;5048412;28;20595;-81
2022/11/06 11:19:14;;;;;;;6.95;3.78;;;;;;;;;;5031814;28;20028;-80
2022/11/06 11:21:51;;;;;;;6.53;3.00;;;;;;;;;;5041876;28;20024;-82
2022/11/06 11:24:16;;;;;;;9.15;4.13;;;;;;;;;;5047310;28;20049;-82
2022/11/06 11:26:42;;;;;;;7.63;3.77;;;;;;;;;;5051680;28;20124;-80
2022/11/06 11:29:14;;;;;;;4.80;3.22;;;;;;;;;;5036701;28;20288;-81
2022/11/06 11:31:39;;;;;;;4.43;2.92;;;;;;;;;;5047772;28;20546;-81
2022/11/06 11:34:06;;;;;;;5.20;3.63;;;;;;;;;;5030071;28;20028;-80
2022/11/06 11:36:49;;;;;;;5.13;3.60;;;;;;;;;;5039119;28;20478;-80
2022/11/06 11:39:15;;;;;;;7.05;3.72;;;;;;;;;;5038307;28;20090;-81
2022/11/06 11:41:41;;;;;;;5.57;3.05;;;;;;;;;;5040887;28;20525;-78
2022/11/06 11:44:12;;;;;;;4.63;3.03;;;;;;;;;;5052349;28;20019;-71
2022/11/06 11:46:51;;;;;;;3.83;3.05;;;;;;;;;;5051748;28;20279;-79
2022/11/06 11:49:26;;;;;;;5.80;3.70;;;;;;;;;;5027043;28;20119;-79
2022/11/06 11:51:52;;;;;;;8.02;3.72;;;;;;;;;;5069963;28;20133;-78
2022/11/06 11:54:18;;;;;;;5.28;3.13;;;;;;;;;;5063296;28;20104;-79
2022/11/06 11:56:46;;;;;;;5.20;2.75;;;;;;;;;;5051458;28;20033;-79
2022/11/06 11:59:15;;;;;;;4.35;3.20;;;;;;;;;;5032634;28;20515;-79
2022/11/06 12:01:41;;;;;;;5.43;3.47;;;;;;;;;;5050423;28;20032;-77
2022/11/06 12:04:07;;;;;;;5.00;3.20;;;;;;;;;;5032577;28;20124;-82
2022/11/06 12:06:32;;;;;;;5.80;3.00;;;;;;;;;;5052986;28;20017;-82
2022/11/06 12:08:58;;;;;;;5.13;2.63;;;;;;;;;;5050108;28;20035;-82
2022/11/06 12:11:24;;;;;;;3.85;2.75;;;;;;;;;;5054301;28;20805;-83
2022/11/06 12:14:09;;;;;;;6.15;3.47;;;;;;;;;;5033254;28;20124;-81
2022/11/06 12:16:34;;;;;;;4.80;2.83;;;;;;;;;;5057968;28;20116;-81
2022/11/06 12:19:00;;;;;;;5.18;2.88;;;;;;;;;;5035543;28;20524;-78
2022/11/06 12:21:31;;;;;;;4.00;2.80;;;;;;;;;;5040040;28;20021;-81
2022/11/06 12:24:09;;;;;;;4.82;3.03;;;;;;;;;;5052259;28;20261;-72
2022/11/06 12:26:46;;;;;;;5.03;3.33;;;;;;;;;;5035784;28;20013;-72
2022/11/06 12:29:18;;;;;;;4.75;3.10;;;;;;;;;;5032536;28;20120;-72
2022/11/06 12:31:49;;;;;;;7.30;3.80;;;;;;;;;;5033169;28;20104;-70
2022/11/06 12:34:41;;;;;;;3.58;2.60;;;;;;;;;;5032910;28;20028;-72
2022/11/06 12:37:12;;;;;;;5.18;3.20;;;;;;;;;;5021835;28;20032;-79
2022/11/06 12:39:40;;;;;;;4.40;2.72;;;;;;;;;;5034106;28;20067;-74
2022/11/06 12:42:09;;;;;;;6.20;2.85;;;;;;;;;;5031828;28;20116;-77
2022/11/06 12:44:34;;;;;;;5.18;3.03;;;;;;;;;;5050305;28;20476;-76
2022/11/06 12:47:06;;;;;;;5.90;3.20;;;;;;;;;;5054425;28;20036;-77
2022/11/06 12:49:38;;;;;;;6.22;3.10;;;;;;;;;;5030684;28;20017;-80
2022/11/06 12:52:22;;;;;;;5.28;3.20;;;;;;;;;;5055752;28;20563;-77
2022/11/06 12:55:02;;;;;;;4.72;2.92;;;;;;;;;;5030206;28;20020;-77
2022/11/06 12:57:39;;;;;;;5.93;3.63;;;;;;;;;;5019862;28;20096;-71
2022/11/06 13:00:08;;;;;;;4.68;2.85;;;;;;;;;;5046177;28;20140;-81
2022/11/06 13:02:45;;;;;;;4.80;2.60;;;;;;;;;;5048711;28;20388;-82
2022/11/06 13:05:27;;;;;;;4.82;2.67;;;;;;;;;;5049017;28;20029;-81
2022/11/06 13:08:04;;;;;;;6.75;3.00;;;;;;;;;;5050683;28;20086;-82
2022/11/06 13:10:44;;;;;;;5.93;2.65;;;;;;;;;;5031562;28;20439;-82
2022/11/06 13:13:10;;;;;;;8.90;3.42;;;;;;;;;;5045545;28;20210;-83
2022/11/06 13:15:43;;;;;;;5.30;3.10;;;;;;;;;;5047945;28;20032;-73
2022/11/06 13:18:12;;;;;;;5.68;3.55;;;;;;;;;;5049719;28;20024;-81
2022/11/06 13:20:46;;;;;;;6.07;3.40;;;;;;;;;;5033765;28;20033;-83
2022/11/06 13:23:25;;;;;;;4.63;2.90;;;;;;;;;;5051065;28;20124;-79
2022/11/06 13:25:59;;;;;;;4.07;2.70;;;;;;;;;;5031938;28;20040;-81
2022/11/06 13:28:36;;;;;;;5.80;3.22;;;;;;;;;;5032226;28;20056;-81
2022/11/06 13:31:03;;;;;;;4.30;3.00;;;;;;;;;;5042857;28;20029;-80
2022/11/06 13:33:31;;;;;;;6.55;3.10;;;;;;;;;;5048072;28;20025;-82
2022/11/06 13:35:57;;;;;;;5.82;3.22;;;;;;;;;;5032302;28;20017;-82
2022/11/06 13:38:43;;;;;;;4.65;3.60;;;;;;;;;;5045899;28;20017;-83
2022/11/06 13:41:13;;;;;;;7.00;3.08;;;;;;;;;;5033964;28;20123;-83
2022/11/06 13:43:43;;;;;;;5.10;2.97;;;;;;;;;;5043706;28;20104;-81
2022/11/06 13:46:17;;;;;;;5.90;3.95;;;;;;;;;;5052265;28;20038;-81
2022/11/06 13:48:54;;;;;;;4.00;2.78;;;;;;;;;;5043536;28;20044;-81
2022/11/06 13:51:24;;;;;;;7.05;3.17;;;;;;;;;;5035516;28;20012;-83
2022/11/06 13:53:52;;;;;;;6.78;3.53;;;;;;;;;;5048892;28;20545;-84
2022/11/06 13:56:36;;;;;;;5.53;3.10;;;;;;;;;;5033325;28;20031;-83
2022/11/06 13:59:04;;;;;;;5.60;3.90;;;;;;;;;;5049157;28;20372;-82
2022/11/06 14:01:32;;;;;;;7.38;4.55;;;;;;;;;;5054726;28;20025;-83
2022/11/06 14:04:10;;;;;;;6.97;3.53;;;;;;;;;;5027599;28;20534;-83
2022/11/06 14:06:38;;;;;;;5.47;3.88;;;;;;;;;;5026477;28;20024;-83
2022/11/06 14:09:03;;;;;;;5.88;3.50;;;;;;;;;;5049387;28;20032;-83
2022/11/06 14:11:29;;;;;;;4.07;2.70;;;;;;;;;;5045383;28;20028;-70
2022/11/06 14:14:02;;;;;;;4.68;2.88;;;;;;;;;;5030838;28;20021;-71
2022/11/06 14:16:29;;;;;;;5.03;3.33;;;;;;;;;;5028728;28;20046;-72
2022/11/06 14:18:56;;;;;;;4.88;2.90;;;;;;;;;;5027565;28;20021;-70
2022/11/06 14:21:24;;;;;;;5.00;3.20;;;;;;;;;;5046351;28;20020;-71
2022/11/06 14:24:05;;;;;;;4.90;2.90;;;;;;;;;;5034015;28;20029;-71
2022/11/06 14:26:38;;;;;;;4.72;3.08;;;;;;;;;;5047695;28;20025;-70
2022/11/06 14:29:22;;;;;;;5.35;3.03;;;;;;;;;;5052375;28;20051;-75
2022/11/06 14:31:57;;;;;;;9.10;3.40;;;;;;;;;;5026802;28;20066;-81
2022/11/06 14:34:26;;;;;;;5.13;3.30;;;;;;;;;;5047172;28;20032;-79
2022/11/06 14:36:51;;;;;;;4.57;3.08;;;;;;;;;;5030641;28;20029;-81
2022/11/06 14:39:36;;;;;;;4.97;2.97;;;;;;;;;;5048819;28;20116;-81
2022/11/06 14:42:02;;;;;;;4.93;3.22;;;;;;;;;;5032044;28;20276;-82
2022/11/06 14:44:48;;;;;;;5.07;3.35;;;;;;;;;;5048877;28;20024;-82
2022/11/06 14:47:22;;;;;;;5.03;2.90;;;;;;;;;;5022297;28;20443;-77
2022/11/06 14:49:50;;;;;;;5.32;3.60;;;;;;;;;;5048219;28;20029;-71
2022/11/06 14:52:16;;;;;;;5.43;2.75;;;;;;;;;;5031595;28;20047;-71
2022/11/06 14:54:50;;;;;;;5.15;3.25;;;;;;;;;;5051482;28;20476;-69
2022/11/06 14:57:17;;;;;;;6.78;4.07;;;;;;;;;;5043957;28;20078;-71
2022/11/06 14:59:43;;;;;;;6.18;4.00;;;;;;;;;;5037017;28;20021;-70
2022/11/06 15:02:14;;;;;;;8.18;4.30;;;;;;;;;;5055364;28;20098;-70